Time;durP1;ratioP1;P1;durP2;ratioP2;P2;SDS_P1;SDS_P2;PMS_P1;PMS_P2;Temp;Humidity;BMP_temperature;BMP_pressure;BME280_temperature;BME280_humidity;BME280_pressure;Samples;Min_cycle;Max_cycle;Signal;HPM_P1;HPM_P2
2021/06/16 00:00:25;;;;;;;15.05;11.27;;;19.00;99.90;;;;;;5073740;28;20025;-83
2021/06/16 00:02:51;;;;;;;19.38;11.85;;;19.00;99.90;;;;;;5074738;28;20213;-83
2021/06/16 00:05:21;;;;;;;16.08;12.05;;;19.00;99.90;;;;;;5075055;28;20487;-83
2021/06/16 00:07:47;;;;;;;15.63;11.38;;;19.00;99.90;;;;;;5072748;28;20111;-83
2021/06/16 00:10:15;;;;;;;14.35;10.02;;;18.90;99.90;;;;;;5073955;28;20079;-83
2021/06/16 00:12:41;;;;;;;12.23;9.00;;;18.90;99.90;;;;;;5073772;28;20428;-83
2021/06/16 00:15:11;;;;;;;12.70;10.32;;;18.80;99.90;;;;;;5075048;28;20024;-83
2021/06/16 00:17:37;;;;;;;16.58;10.48;;;18.80;99.90;;;;;;5097694;28;20025;-83
2021/06/16 00:20:04;;;;;;;18.60;9.68;;;18.70;99.90;;;;;;5096292;28;20048;-83
2021/06/16 00:22:30;;;;;;;17.25;10.38;;;18.70;99.90;;;;;;5075328;28;20020;-84
2021/06/16 00:24:56;;;;;;;18.58;11.13;;;18.60;99.90;;;;;;5075185;28;20046;-85
2021/06/16 00:27:22;;;;;;;14.75;8.85;;;18.70;99.90;;;;;;5073377;28;20021;-84
2021/06/16 00:29:47;;;;;;;11.18;8.60;;;18.70;99.90;;;;;;5074680;28;20035;-85
2021/06/16 00:32:13;;;;;;;16.17;10.15;;;18.70;99.90;;;;;;5073438;28;20052;-85
2021/06/16 00:34:39;;;;;;;16.15;8.68;;;18.70;99.90;;;;;;5074959;28;20428;-85
2021/06/16 00:37:05;;;;;;;12.77;7.97;;;18.70;99.90;;;;;;5072987;28;20025;-84
2021/06/16 00:39:31;;;;;;;10.57;6.60;;;18.70;99.90;;;;;;5073108;28;20028;-85
2021/06/16 00:41:57;;;;;;;13.75;7.30;;;18.70;99.90;;;;;;5074361;28;20580;-84
2021/06/16 00:44:22;;;;;;;14.88;6.93;;;18.60;99.90;;;;;;5074617;28;20114;-84
2021/06/16 00:46:48;;;;;;;12.30;8.35;;;18.50;99.90;;;;;;5074555;28;20494;-84
2021/06/16 00:49:14;;;;;;;16.83;9.80;;;18.40;99.90;;;;;;5074795;28;20036;-84
2021/06/16 00:51:39;;;;;;;11.07;8.52;;;18.40;99.90;;;;;;5074617;28;20028;-84
2021/06/16 00:54:10;;;;;;;9.45;8.13;;;18.30;99.90;;;;;;5074824;28;20109;-84
2021/06/16 00:56:38;;;;;;;13.82;9.95;;;18.30;99.90;;;;;;5075052;28;20025;-85
2021/06/16 00:59:05;;;;;;;13.57;9.45;;;18.30;99.90;;;;;;5084802;28;20031;-85
2021/06/16 01:01:31;;;;;;;12.27;8.85;;;18.40;99.90;;;;;;5093458;28;20033;-83
2021/06/16 01:04:11;;;;;;;13.05;9.38;;;18.50;99.90;;;;;;5092521;28;20037;-84
2021/06/16 01:06:48;;;;;;;12.68;9.27;;;18.50;99.90;;;;;;5092750;28;20020;-84
2021/06/16 01:09:33;;;;;;;11.27;8.90;;;18.50;99.90;;;;;;5093705;28;20429;-84
2021/06/16 01:12:37;;;;;;;10.65;8.45;;;18.50;99.90;;;;;;5086527;28;20027;-85
2021/06/16 01:15:20;;;;;;;11.02;8.80;;;18.50;99.90;;;;;;5059464;28;20033;-84
2021/06/16 01:17:57;;;;;;;10.60;8.93;;;18.50;99.90;;;;;;5073675;28;20024;-84
2021/06/16 01:20:43;;;;;;;9.65;8.30;;;18.50;99.90;;;;;;5073229;28;20471;-85
2021/06/16 01:23:09;;;;;;;11.35;9.23;;;18.60;99.90;;;;;;5072584;28;20067;-84
2021/06/16 01:26:08;;;;;;;13.20;9.18;;;18.50;99.90;;;;;;5072466;28;20055;-84
2021/06/16 01:28:39;;;;;;;10.90;8.48;;;18.60;99.90;;;;;;5073326;28;20030;-83
2021/06/16 01:31:06;;;;;;;11.90;9.02;;;18.50;99.90;;;;;;5073766;28;20096;-83
2021/06/16 01:33:32;;;;;;;8.95;7.97;;;18.50;99.90;;;;;;5072392;28;20027;-83
2021/06/16 01:35:59;;;;;;;9.20;7.55;;;18.60;99.90;;;;;;5073669;28;20027;-83
2021/06/16 01:38:26;;;;;;;8.88;7.82;;;18.50;99.90;;;;;;5072362;28;20020;-83
2021/06/16 01:40:57;;;;;;;9.88;8.45;;;18.50;99.90;;;;;;5073376;28;20078;-83
2021/06/16 01:43:24;;;;;;;12.48;8.75;;;18.50;99.90;;;;;;5072185;28;20021;-82
2021/06/16 01:45:51;;;;;;;7.63;6.97;;;18.50;99.90;;;;;;5071732;28;20048;-82
2021/06/16 01:48:20;;;;;;;9.95;7.60;;;18.50;99.90;;;;;;5071947;28;20031;-82
2021/06/16 01:50:49;;;;;;;11.45;7.40;;;18.40;99.90;;;;;;5071630;28;20078;-81
2021/06/16 01:53:16;;;;;;;10.38;8.65;;;18.40;99.90;;;;;;5073046;28;20016;-81
2021/06/16 01:55:41;;;;;;;7.65;6.82;;;18.40;99.90;;;;;;5071763;28;20083;-82
2021/06/16 01:58:08;;;;;;;11.02;7.35;;;18.40;99.90;;;;;;5073243;28;20024;-82
2021/06/16 02:00:37;;;;;;;9.30;7.85;;;18.40;99.90;;;;;;5073244;28;20021;-82
2021/06/16 02:03:04;;;;;;;9.73;8.73;;;18.40;99.90;;;;;;5071893;28;20029;-83
2021/06/16 02:05:31;;;;;;;8.88;7.80;;;18.40;99.90;;;;;;5072905;28;20033;-82
2021/06/16 02:08:02;;;;;;;7.95;7.20;;;18.40;99.90;;;;;;5071910;28;20024;-82
2021/06/16 02:10:42;;;;;;;10.05;7.13;;;18.40;99.90;;;;;;5071649;28;20474;-83
2021/06/16 02:13:10;;;;;;;8.07;7.28;;;18.40;99.90;;;;;;5072011;28;20035;-84
2021/06/16 02:15:48;;;;;;;10.40;7.15;;;18.40;99.90;;;;;;5071977;28;20025;-84
2021/06/16 02:18:16;;;;;;;8.07;7.00;;;18.40;99.90;;;;;;5071727;28;20033;-84
2021/06/16 02:20:43;;;;;;;7.40;6.50;;;18.50;99.90;;;;;;5071413;28;20158;-84
2021/06/16 02:23:09;;;;;;;7.88;6.28;;;18.50;99.90;;;;;;5072712;28;20021;-84
2021/06/16 02:25:35;;;;;;;7.28;6.57;;;18.50;99.90;;;;;;5072780;28;20051;-84
2021/06/16 02:28:01;;;;;;;7.43;6.72;;;18.50;99.90;;;;;;5073001;28;20025;-84
2021/06/16 02:30:27;;;;;;;7.30;6.70;;;18.50;99.90;;;;;;5072409;28;20128;-84
2021/06/16 02:32:53;;;;;;;7.63;6.88;;;18.50;99.90;;;;;;5076758;28;20020;-85
2021/06/16 02:35:19;;;;;;;7.35;6.65;;;18.50;99.90;;;;;;5076855;28;20029;-84
2021/06/16 02:37:53;;;;;;;7.65;6.95;;;18.60;99.90;;;;;;5076821;28;20032;-85
2021/06/16 02:40:20;;;;;;;6.88;6.25;;;18.60;99.90;;;;;;5076412;28;20043;-83
2021/06/16 02:42:48;;;;;;;7.10;6.40;;;18.70;99.90;;;;;;5075219;28;20355;-84
2021/06/16 02:45:16;;;;;;;6.65;5.93;;;18.90;99.90;;;;;;5075318;28;20031;-84
2021/06/16 02:47:46;;;;;;;5.93;5.32;;;19.40;99.90;;;;;;5076462;28;20103;-84
2021/06/16 02:50:16;;;;;;;6.75;5.40;;;20.00;99.90;;;;;;5076347;28;20021;-85
2021/06/16 02:52:43;;;;;;;5.90;5.10;;;20.70;99.90;;;;;;5076207;28;20030;-84
2021/06/16 02:55:11;;;;;;;5.10;4.63;;;21.30;99.90;;;;;;5075305;28;20826;-80
2021/06/16 02:57:40;;;;;;;5.20;4.57;;;21.70;99.90;;;;;;5075114;28;20029;-81
2021/06/16 03:00:09;;;;;;;4.97;4.53;;;21.90;99.90;;;;;;5075087;28;20078;-80
2021/06/16 03:02:38;;;;;;;5.22;4.63;;;21.90;99.90;;;;;;5075303;28;20048;-80
2021/06/16 03:05:05;;;;;;;5.47;4.93;;;21.80;99.90;;;;;;5074774;28;20028;-80
2021/06/16 03:07:34;;;;;;;4.85;4.45;;;21.60;99.90;;;;;;5076272;28;20535;-80
2021/06/16 03:10:00;;;;;;;6.50;5.10;;;21.50;99.90;;;;;;5077939;28;20091;-80
2021/06/16 03:12:27;;;;;;;5.55;5.00;;;21.40;99.90;;;;;;5076226;28;20024;-79
2021/06/16 03:14:54;;;;;;;6.28;5.53;;;21.40;99.90;;;;;;5077139;28;20046;-79
2021/06/16 03:17:20;;;;;;;5.05;4.55;;;21.30;99.90;;;;;;5075955;28;20025;-79
2021/06/16 03:19:48;;;;;;;4.47;4.07;;;21.40;99.90;;;;;;5073953;28;20028;-79
2021/06/16 03:22:16;;;;;;;4.35;3.88;;;21.60;99.90;;;;;;5074829;28;20035;-80
2021/06/16 03:24:44;;;;;;;4.53;3.30;;;22.20;99.90;;;;;;5078517;28;20028;-84
2021/06/16 03:27:11;;;;;;;6.65;3.22;;;23.00;99.90;;;;;;5081406;28;20016;-84
2021/06/16 03:29:39;;;;;;;3.80;3.50;;;23.80;99.90;;;;;;5094270;28;20017;-84
2021/06/16 03:32:08;;;;;;;3.38;3.13;;;24.60;99.90;;;;;;5091892;28;20020;-84
2021/06/16 03:34:37;;;;;;;3.50;3.20;;;25.10;99.90;;;;;;5080375;28;20032;-84
2021/06/16 03:37:07;;;;;;;3.10;2.90;;;25.50;99.90;;;;;;5074283;28;20025;-85
2021/06/16 03:39:34;;;;;;;3.10;2.90;;;25.70;99.90;;;;;;5075570;28;20028;-85
2021/06/16 03:42:01;;;;;;;3.55;2.80;;;25.90;99.90;;;;;;5075490;28;20098;-84
2021/06/16 03:44:27;;;;;;;3.40;2.70;;;25.80;99.90;;;;;;5074171;28;20028;-82
2021/06/16 03:46:54;;;;;;;2.80;2.60;;;25.60;99.90;;;;;;5075200;28;20043;-85
2021/06/16 03:49:22;;;;;;;3.03;2.53;;;25.60;99.90;;;;;;5073521;28;20389;-85
2021/06/16 03:51:48;;;;;;;2.60;2.40;;;25.40;99.90;;;;;;5073834;28;20024;-85
2021/06/16 03:54:15;;;;;;;2.60;2.40;;;25.40;99.90;;;;;;5075029;28;20044;-83
2021/06/16 03:56:45;;;;;;;3.10;2.65;;;25.50;99.90;;;;;;5073761;28;20027;-86
2021/06/16 03:59:12;;;;;;;2.70;2.50;;;25.70;99.90;;;;;;5074636;28;20031;-84
2021/06/16 04:01:42;;;;;;;2.90;2.55;;;26.30;99.90;;;;;;5076251;28;20025;-85
2021/06/16 04:04:09;;;;;;;3.88;2.95;;;26.90;99.90;;;;;;5081627;28;20052;-86
2021/06/16 04:06:36;;;;;;;2.92;2.72;;;27.30;99.90;;;;;;5078185;28;20327;-86
2021/06/16 04:09:04;;;;;;;3.50;3.17;;;27.30;96.60;;;;;;5076935;28;20099;-86
2021/06/16 04:11:31;;;;;;;3.95;3.10;;;26.80;94.50;;;;;;5072882;28;20027;-87
2021/06/16 04:13:58;;;;;;;3.08;2.88;;;26.20;92.50;;;;;;5073024;28;20032;-86
2021/06/16 04:16:26;;;;;;;2.53;2.42;;;25.50;92.30;;;;;;5073205;28;20077;-80
2021/06/16 04:18:52;;;;;;;4.50;3.65;;;25.00;92.40;;;;;;5072601;28;20199;-80
2021/06/16 04:21:18;;;;;;;4.00;3.70;;;24.60;94.30;;;;;;5072760;28;20544;-80
2021/06/16 04:23:44;;;;;;;3.28;3.08;;;24.30;95.00;;;;;;5071398;28;20036;-80
2021/06/16 04:26:10;;;;;;;4.63;3.45;;;24.10;94.50;;;;;;5071247;28;20448;-80
2021/06/16 04:28:35;;;;;;;6.82;3.22;;;23.70;94.30;;;;;;5072853;28;20095;-81
2021/06/16 04:31:01;;;;;;;4.72;3.85;;;23.30;94.90;;;;;;5071509;28;20052;-81
2021/06/16 04:33:27;;;;;;;6.90;3.88;;;23.00;95.00;;;;;;5071997;28;20020;-81
2021/06/16 04:35:53;;;;;;;6.60;4.38;;;22.80;96.60;;;;;;5080391;28;20025;-82
2021/06/16 04:38:18;;;;;;;4.30;3.60;;;22.80;98.10;;;;;;5088412;28;20030;-84
2021/06/16 04:40:44;;;;;;;6.25;4.13;;;22.80;98.80;;;;;;5082775;28;20032;-84
2021/06/16 04:43:10;;;;;;;4.85;3.85;;;22.90;99.00;;;;;;5083761;28;20088;-80
2021/06/16 04:45:36;;;;;;;3.63;3.33;;;23.00;99.50;;;;;;5073652;28;20485;-81
2021/06/16 04:48:04;;;;;;;6.05;3.88;;;23.30;99.90;;;;;;5076712;28;20017;-82
2021/06/16 04:50:30;;;;;;;3.90;3.50;;;23.60;99.90;;;;;;5073153;28;20482;-81
2021/06/16 04:52:55;;;;;;;6.50;4.32;;;23.90;99.90;;;;;;5071156;28;20028;-81
2021/06/16 04:55:21;;;;;;;4.68;3.63;;;24.00;98.70;;;;;;5070969;28;20048;-82
2021/06/16 04:57:47;;;;;;;4.32;3.92;;;23.90;97.10;;;;;;5072710;28;20024;-83
2021/06/16 05:00:13;;;;;;;4.57;4.10;;;23.70;96.50;;;;;;5072881;28;20094;-81
2021/06/16 05:02:38;;;;;;;4.30;3.90;;;23.50;96.40;;;;;;5072395;28;20036;-79
2021/06/16 05:05:06;;;;;;;20.20;16.55;;;23.30;95.90;;;;;;5070248;28;20039;-80
2021/06/16 05:07:31;;;;;;;5.30;4.43;;;23.20;96.40;;;;;;5070125;28;20107;-78
2021/06/16 05:09:57;;;;;;;4.03;3.72;;;23.00;96.50;;;;;;5071796;28;20124;-79
2021/06/16 05:12:23;;;;;;;7.07;4.35;;;22.80;96.80;;;;;;5070857;28;20013;-79
2021/06/16 05:14:49;;;;;;;5.95;3.92;;;22.80;97.60;;;;;;5070637;28;20180;-79
2021/06/16 05:17:16;;;;;;;4.13;3.72;;;22.80;98.00;;;;;;5071005;28;20036;-79
2021/06/16 05:19:44;;;;;;;5.30;4.57;;;22.70;98.20;;;;;;5070615;28;20029;-80
2021/06/16 05:22:13;;;;;;;4.35;3.95;;;22.70;97.70;;;;;;5071204;28;20024;-81
2021/06/16 05:24:39;;;;;;;4.30;3.83;;;22.70;97.90;;;;;;5069878;28;20029;-80
2021/06/16 05:27:05;;;;;;;4.70;4.30;;;22.70;98.00;;;;;;5070995;28;20106;-80
2021/06/16 05:29:31;;;;;;;5.25;4.40;;;22.60;98.00;;;;;;5069899;28;20025;-81
2021/06/16 05:31:57;;;;;;;4.78;4.38;;;22.60;98.10;;;;;;5069554;28;20333;-79
2021/06/16 05:34:23;;;;;;;8.35;5.90;;;22.60;98.10;;;;;;5069673;28;20047;-82
2021/06/16 05:36:48;;;;;;;4.57;4.18;;;22.60;98.10;;;;;;5074217;28;20449;-79
2021/06/16 05:39:14;;;;;;;5.22;4.32;;;22.70;98.50;;;;;;5071808;28;20028;-79
2021/06/16 05:41:40;;;;;;;5.07;4.57;;;22.70;98.60;;;;;;5069135;28;20028;-80
2021/06/16 05:44:06;;;;;;;4.45;4.05;;;22.80;98.40;;;;;;5070407;28;20406;-80
2021/06/16 05:46:31;;;;;;;4.60;4.15;;;22.90;98.10;;;;;;5070909;28;20059;-79
2021/06/16 05:48:57;;;;;;;7.43;5.57;;;23.00;97.90;;;;;;5070691;28;20070;-79
2021/06/16 05:51:23;;;;;;;5.38;4.75;;;23.00;98.10;;;;;;5069002;28;20464;-80
2021/06/16 05:53:48;;;;;;;5.53;4.53;;;23.20;98.50;;;;;;5070472;28;20059;-79
2021/06/16 05:56:14;;;;;;;7.63;5.75;;;23.50;98.70;;;;;;5069270;28;20079;-79
2021/06/16 05:58:40;;;;;;;4.97;4.40;;;23.80;98.50;;;;;;5071662;28;20028;-78
2021/06/16 06:01:11;;;;;;;4.85;4.30;;;24.10;97.50;;;;;;5071898;28;20454;-79
2021/06/16 06:03:37;;;;;;;4.90;4.40;;;24.30;96.30;;;;;;5070307;28;20081;-79
2021/06/16 06:06:03;;;;;;;4.65;4.30;;;24.40;95.70;;;;;;5073866;28;20101;-79
2021/06/16 06:08:29;;;;;;;4.60;4.20;;;24.60;95.00;;;;;;5082656;28;20029;-78
2021/06/16 06:10:57;;;;;;;4.45;4.05;;;24.80;94.20;;;;;;5077915;28;20457;-79
2021/06/16 06:13:23;;;;;;;5.13;4.60;;;25.00;93.80;;;;;;5075243;28;20085;-79
2021/06/16 06:15:48;;;;;;;4.72;4.25;;;25.20;93.10;;;;;;5075063;28;20511;-79
2021/06/16 06:18:14;;;;;;;4.82;4.43;;;25.30;92.30;;;;;;5074954;28;20036;-82
2021/06/16 06:20:40;;;;;;;5.75;4.82;;;25.60;92.20;;;;;;5073955;28;20028;-83
2021/06/16 06:23:05;;;;;;;3.97;3.67;;;25.90;91.30;;;;;;5074041;28;20060;-83
2021/06/16 06:25:31;;;;;;;8.95;4.78;;;26.00;90.60;;;;;;5073979;28;20467;-78
2021/06/16 06:27:57;;;;;;;5.18;4.40;;;26.20;90.10;;;;;;5074711;28;20032;-87
2021/06/16 06:30:23;;;;;;;5.28;4.60;;;26.50;89.60;;;;;;5074541;28;20031;-83
2021/06/16 06:32:49;;;;;;;9.68;5.57;;;26.90;86.80;;;;;;5073414;28;20394;-80
2021/06/16 06:35:14;;;;;;;5.40;4.90;;;26.90;84.30;;;;;;5073310;28;20028;-80
2021/06/16 06:37:40;;;;;;;5.20;4.70;;;26.90;83.50;;;;;;5073287;28;20028;-86
2021/06/16 06:40:07;;;;;;;7.75;4.78;;;26.90;82.90;;;;;;5073722;28;20027;-81
2021/06/16 06:42:32;;;;;;;6.18;4.35;;;26.90;80.90;;;;;;5072987;28;20040;-79
2021/06/16 06:44:58;;;;;;;7.13;4.85;;;26.70;79.50;;;;;;5073860;28;20032;-79
2021/06/16 06:47:26;;;;;;;6.63;5.20;;;26.40;78.90;;;;;;5073537;28;20074;-79
2021/06/16 06:49:52;;;;;;;6.25;5.60;;;26.10;79.30;;;;;;5073030;28;20102;-79
2021/06/16 06:52:18;;;;;;;5.50;5.00;;;26.00;80.20;;;;;;5073456;28;20458;-80
2021/06/16 06:54:44;;;;;;;5.32;4.90;;;26.00;80.10;;;;;;5073159;28;20056;-79
2021/06/16 06:57:10;;;;;;;8.02;4.75;;;26.20;81.40;;;;;;5073326;28;20082;-79
2021/06/16 06:59:35;;;;;;;11.23;5.63;;;26.80;81.20;;;;;;5073339;28;20028;-79
2021/06/16 07:02:02;;;;;;;5.53;4.80;;;27.30;80.10;;;;;;5072927;28;20300;-79
2021/06/16 07:04:28;;;;;;;8.05;5.22;;;27.80;78.70;;;;;;5071961;28;20474;-79
2021/06/16 07:06:54;;;;;;;4.63;4.03;;;28.30;78.30;;;;;;5072968;28;20031;-79
2021/06/16 07:09:19;;;;;;;4.90;4.50;;;28.70;76.80;;;;;;5072923;28;20025;-79
2021/06/16 07:11:45;;;;;;;4.80;4.32;;;28.90;75.00;;;;;;5073316;28;20032;-80
2021/06/16 07:14:11;;;;;;;5.43;4.85;;;29.10;74.70;;;;;;5073095;28;20027;-80
2021/06/16 07:16:37;;;;;;;4.90;4.50;;;29.60;74.50;;;;;;5072607;28;20036;-80
2021/06/16 07:19:03;;;;;;;5.10;4.40;;;30.00;73.30;;;;;;5073262;28;20082;-80
2021/06/16 07:21:28;;;;;;;5.05;4.47;;;30.20;72.00;;;;;;5073225;28;20040;-79
2021/06/16 07:23:54;;;;;;;5.10;4.60;;;30.30;71.60;;;;;;5072513;28;20157;-79
2021/06/16 07:26:20;;;;;;;6.80;4.55;;;30.60;71.00;;;;;;5071155;28;20021;-78
2021/06/16 07:28:46;;;;;;;5.97;4.75;;;31.00;71.30;;;;;;5071444;28;20040;-78
2021/06/16 07:31:12;;;;;;;6.03;5.10;;;31.90;70.10;;;;;;5071424;28;20408;-78
2021/06/16 07:33:37;;;;;;;9.48;4.72;;;32.30;67.70;;;;;;5072579;28;20154;-78
2021/06/16 07:36:04;;;;;;;7.03;4.68;;;32.30;66.50;;;;;;5073151;28;20190;-79
2021/06/16 07:38:29;;;;;;;6.43;4.63;;;32.10;65.50;;;;;;5072706;28;20031;-78
2021/06/16 07:40:55;;;;;;;5.30;4.75;;;31.90;65.20;;;;;;5071914;28;20028;-79
2021/06/16 07:43:21;;;;;;;5.72;5.15;;;31.50;64.80;;;;;;5070490;28;20107;-78
2021/06/16 07:45:47;;;;;;;5.55;4.85;;;31.10;64.40;;;;;;5070270;28;20119;-78
2021/06/16 07:48:12;;;;;;;7.78;6.20;;;30.70;65.40;;;;;;5070692;28;20025;-79
2021/06/16 07:50:38;;;;;;;5.82;5.22;;;30.50;66.00;;;;;;5070474;28;20028;-78
2021/06/16 07:53:05;;;;;;;6.65;5.47;;;30.40;66.50;;;;;;5072055;28;20027;-78
2021/06/16 07:55:32;;;;;;;9.60;6.75;;;30.30;66.60;;;;;;5071384;28;20040;-78
2021/06/16 07:57:57;;;;;;;6.72;6.03;;;30.10;66.50;;;;;;5071322;28;20056;-77
2021/06/16 08:00:23;;;;;;;8.70;5.35;;;30.00;66.60;;;;;;5070241;28;20430;-78
2021/06/16 08:02:49;;;;;;;5.03;4.60;;;29.80;66.80;;;;;;5071663;28;20032;-79
2021/06/16 08:05:15;;;;;;;6.10;5.10;;;29.50;66.70;;;;;;5072285;28;20044;-78
2021/06/16 08:07:42;;;;;;;9.20;6.18;;;29.30;67.00;;;;;;5072639;28;20020;-79
2021/06/16 08:10:09;;;;;;;8.35;5.40;;;29.00;67.40;;;;;;5072267;28;20131;-78
2021/06/16 08:12:34;;;;;;;5.68;5.13;;;28.80;67.60;;;;;;5071765;28;20029;-77
2021/06/16 08:15:01;;;;;;;7.70;6.93;;;28.60;68.10;;;;;;5071565;28;20024;-78
2021/06/16 08:17:27;;;;;;;12.88;6.55;;;28.40;68.50;;;;;;5071893;28;20538;-78
2021/06/16 08:19:52;;;;;;;6.78;5.95;;;28.20;68.70;;;;;;5072377;28;20107;-77
2021/06/16 08:22:18;;;;;;;6.93;4.93;;;28.10;68.70;;;;;;5071688;28;20020;-79
2021/06/16 08:24:44;;;;;;;6.47;5.50;;;28.00;68.90;;;;;;5071494;28;20383;-79
2021/06/16 08:27:10;;;;;;;10.18;6.30;;;28.00;69.40;;;;;;5071750;28;20036;-80
2021/06/16 08:29:37;;;;;;;5.50;5.00;;;28.00;69.80;;;;;;5069705;28;20386;-79
2021/06/16 08:32:03;;;;;;;9.82;5.78;;;28.20;70.00;;;;;;5072083;28;20021;-78
2021/06/16 08:34:29;;;;;;;5.18;4.68;;;28.60;70.10;;;;;;5070828;28;20134;-79
2021/06/16 08:36:55;;;;;;;6.15;5.22;;;29.10;69.00;;;;;;5071258;28;20020;-84
2021/06/16 08:39:21;;;;;;;8.73;5.28;;;29.30;67.70;;;;;;5072203;28;20111;-83
2021/06/16 08:41:48;;;;;;;9.05;5.20;;;29.40;66.90;;;;;;5072937;28;20444;-84
2021/06/16 08:44:14;;;;;;;5.65;5.15;;;29.40;66.60;;;;;;5072640;28;20115;-83
2021/06/16 08:46:40;;;;;;;7.60;4.80;;;29.40;66.60;;;;;;5072649;28;20020;-83
2021/06/16 08:49:07;;;;;;;6.10;5.50;;;29.30;66.20;;;;;;5072843;28;20471;-84
2021/06/16 08:51:34;;;;;;;8.23;6.05;;;29.30;66.20;;;;;;5072923;28;20033;-83
2021/06/16 08:54:00;;;;;;;6.90;5.35;;;29.20;66.10;;;;;;5072669;28;20147;-83
2021/06/16 08:56:26;;;;;;;8.00;5.18;;;29.20;66.10;;;;;;5072902;28;20035;-84
2021/06/16 08:58:52;;;;;;;8.27;5.75;;;29.30;65.90;;;;;;5080123;28;20036;-83
2021/06/16 09:01:18;;;;;;;6.60;5.95;;;29.40;66.00;;;;;;5074993;28;20401;-83
2021/06/16 09:03:44;;;;;;;6.18;5.40;;;29.80;65.90;;;;;;5071180;28;20424;-83
2021/06/16 09:06:15;;;;;;;11.65;6.45;;;30.30;65.10;;;;;;5072202;28;20104;-83
2021/06/16 09:09:02;;;;;;;6.20;5.60;;;30.60;63.70;;;;;;5070632;28;20023;-78
2021/06/16 09:11:41;;;;;;;6.72;6.10;;;30.90;63.00;;;;;;5069005;28;20064;-79
2021/06/16 09:14:19;;;;;;;9.30;6.28;;;31.10;61.90;;;;;;5070656;28;20471;-78
2021/06/16 09:16:46;;;;;;;9.60;4.68;;;31.10;60.10;;;;;;5068933;28;20112;-78
2021/06/16 09:19:23;;;;;;;5.05;4.55;;;30.90;60.10;;;;;;5070409;28;20031;-79
2021/06/16 09:21:57;;;;;;;13.02;8.70;;;30.70;60.40;;;;;;5069718;28;20103;-78
2021/06/16 09:24:23;;;;;;;7.13;5.53;;;30.80;60.80;;;;;;5070152;28;20017;-78
2021/06/16 09:26:48;;;;;;;7.10;5.07;;;31.00;60.40;;;;;;5069985;28;20028;-78
2021/06/16 09:29:14;;;;;;;7.72;6.85;;;30.90;60.00;;;;;;5070400;28;20035;-77
2021/06/16 09:31:45;;;;;;;4.88;4.38;;;30.80;60.20;;;;;;5068646;28;20020;-78
2021/06/16 09:34:17;;;;;;;6.83;4.20;;;30.70;60.20;;;;;;5070239;28;20032;-77
2021/06/16 09:36:54;;;;;;;5.28;4.78;;;30.70;59.40;;;;;;5070306;28;20262;-77
2021/06/16 09:39:27;;;;;;;5.15;4.20;;;30.50;60.00;;;;;;5069778;28;20548;-79
2021/06/16 09:41:54;;;;;;;4.38;3.97;;;30.60;60.10;;;;;;5070134;28;20528;-79
2021/06/16 09:44:44;;;;;;;3.85;3.40;;;30.60;59.20;;;;;;5069813;28;20093;-80
2021/06/16 09:47:19;;;;;;;5.10;3.53;;;30.20;57.90;;;;;;5070357;28;20459;-77
2021/06/16 09:49:56;;;;;;;9.43;5.38;;;29.80;58.20;;;;;;5069575;28;20371;-77
2021/06/16 09:52:31;;;;;;;3.60;3.30;;;29.50;58.70;;;;;;5068961;28;20025;-77
2021/06/16 09:55:01;;;;;;;5.07;3.33;;;29.30;58.10;;;;;;5069077;28;20143;-77
2021/06/16 09:57:27;;;;;;;4.40;4.00;;;29.30;58.90;;;;;;5069290;28;20028;-78
2021/06/16 09:59:59;;;;;;;6.00;4.13;;;29.40;59.50;;;;;;5069656;28;20028;-77
2021/06/16 10:02:29;;;;;;;3.20;3.00;;;29.40;60.20;;;;;;5070046;28;20056;-79
2021/06/16 10:04:57;;;;;;;4.40;3.13;;;29.50;59.60;;;;;;5070004;28;20056;-78
2021/06/16 10:07:26;;;;;;;4.05;2.97;;;29.70;58.60;;;;;;5068645;28;20672;-78
2021/06/16 10:09:59;;;;;;;3.67;3.38;;;29.90;58.10;;;;;;5070159;28;20025;-78
2021/06/16 10:12:31;;;;;;;3.10;2.90;;;30.00;56.50;;;;;;5070179;28;20025;-77
2021/06/16 10:14:59;;;;;;;4.20;2.85;;;29.90;56.60;;;;;;5069843;28;20123;-78
2021/06/16 10:17:25;;;;;;;4.00;3.30;;;29.70;55.20;;;;;;5070135;28;20073;-79
2021/06/16 10:19:51;;;;;;;5.95;3.22;;;29.50;55.70;;;;;;5070214;28;20059;-79
2021/06/16 10:22:18;;;;;;;4.28;3.28;;;29.60;56.30;;;;;;5068662;28;20408;-78
2021/06/16 10:24:44;;;;;;;5.70;3.35;;;29.50;56.10;;;;;;5069764;28;20359;-80
2021/06/16 10:27:15;;;;;;;3.30;2.92;;;29.40;56.30;;;;;;5070830;28;20027;-77
2021/06/16 10:29:44;;;;;;;5.45;3.08;;;29.30;55.90;;;;;;5069549;28;20078;-79
2021/06/16 10:32:11;;;;;;;3.33;3.03;;;29.10;56.10;;;;;;5069776;28;20468;-79
2021/06/16 10:34:52;;;;;;;3.33;3.08;;;28.80;56.30;;;;;;5070458;28;20047;-77
2021/06/16 10:37:38;;;;;;;3.42;2.78;;;28.50;56.00;;;;;;5070239;28;20036;-77
2021/06/16 10:40:13;;;;;;;3.08;2.75;;;28.30;56.00;;;;;;5070753;28;20016;-78
2021/06/16 10:43:06;;;;;;;3.05;2.38;;;28.00;55.70;;;;;;5069876;28;20025;-78
2021/06/16 10:45:54;;;;;;;2.60;2.40;;;27.60;55.00;;;;;;5069939;28;20127;-86
2021/06/16 10:48:21;;;;;;;3.40;2.78;;;27.30;56.10;;;;;;5071842;28;20041;-84
2021/06/16 10:50:51;;;;;;;2.85;2.45;;;27.00;57.10;;;;;;5072147;28;20029;-83
2021/06/16 10:53:19;;;;;;;4.13;2.92;;;26.60;58.10;;;;;;5074402;28;20017;-83
2021/06/16 10:55:55;;;;;;;3.30;3.00;;;26.30;59.70;;;;;;5072886;28;20393;-80
2021/06/16 10:58:31;;;;;;;6.38;3.42;;;25.70;62.80;;;;;;5075504;28;20078;-82
2021/06/16 11:01:17;;;;;;;8.85;3.92;;;25.10;65.70;;;;;;5075405;28;20096;-81
2021/06/16 11:03:52;;;;;;;5.32;3.80;;;24.40;69.10;;;;;;5073771;28;20029;-80
2021/06/16 11:06:36;;;;;;;5.93;3.33;;;23.90;72.80;;;;;;5074929;28;20104;-82
2021/06/16 11:09:09;;;;;;;4.97;3.78;;;23.60;76.50;;;;;;5075824;28;20020;-79
2021/06/16 11:11:50;;;;;;;4.65;3.90;;;23.30;79.30;;;;;;5074020;28;20017;-79
2021/06/16 11:14:37;;;;;;;15.00;9.25;;;23.30;81.70;;;;;;5074202;28;20021;-82
2021/06/16 11:17:10;;;;;;;5.40;3.85;;;23.40;84.90;;;;;;5075512;28;20106;-80
2021/06/16 11:19:36;;;;;;;6.28;2.97;;;23.40;85.80;;;;;;5075496;28;20047;-82
2021/06/16 11:22:11;;;;;;;9.05;3.92;;;23.60;84.50;;;;;;5073535;28;20487;-82
2021/06/16 11:25:05;;;;;;;4.68;4.05;;;23.40;84.60;;;;;;5075520;28;20020;-81
2021/06/16 11:28:09;;;;;;;6.45;4.88;;;23.40;86.40;;;;;;5078983;28;20048;-82
2021/06/16 11:30:45;;;;;;;15.88;11.43;;;23.30;88.00;;;;;;5076453;28;20012;-85
2021/06/16 11:33:20;;;;;;;8.85;6.88;;;23.20;89.60;;;;;;5073944;28;20078;-83
2021/06/16 11:35:49;;;;;;;7.70;5.70;;;23.20;90.30;;;;;;5074072;28;20025;-82
2021/06/16 11:38:17;;;;;;;8.70;5.40;;;23.20;90.60;;;;;;5074260;28;20052;-82
2021/06/16 11:40:53;;;;;;;11.88;6.28;;;23.10;90.70;;;;;;5074011;28;20024;-83
2021/06/16 11:43:34;;;;;;;6.63;6.00;;;23.10;91.00;;;;;;5072722;28;20498;-83
2021/06/16 11:46:02;;;;;;;8.35;5.20;;;23.00;91.60;;;;;;5073529;28;20060;-83
2021/06/16 11:48:28;;;;;;;6.43;4.97;;;23.00;91.80;;;;;;5073382;28;20082;-82
2021/06/16 11:50:54;;;;;;;8.85;7.93;;;23.00;92.20;;;;;;5073133;28;20033;-82
2021/06/16 11:53:28;;;;;;;5.22;4.32;;;22.90;92.50;;;;;;5073417;28;20036;-81
2021/06/16 11:55:54;;;;;;;5.47;4.30;;;22.90;92.60;;;;;;5073422;28;20044;-82
2021/06/16 11:58:26;;;;;;;8.68;5.18;;;23.00;92.90;;;;;;5073524;28;20044;-82
2021/06/16 12:01:02;;;;;;;4.15;3.75;;;23.00;93.10;;;;;;5073581;28;20025;-82
2021/06/16 12:03:28;;;;;;;4.70;3.00;;;23.10;93.50;;;;;;5072677;28;20036;-82
2021/06/16 12:06:08;;;;;;;5.40;4.85;;;23.10;93.50;;;;;;5072246;28;20099;-81
2021/06/16 12:08:35;;;;;;;2.70;2.50;;;23.10;93.50;;;;;;5072713;28;20082;-79
2021/06/16 12:11:01;;;;;;;3.63;2.88;;;23.20;93.50;;;;;;5072512;28;20023;-82
2021/06/16 12:13:28;;;;;;;5.57;3.80;;;23.20;93.40;;;;;;5071522;28;20081;-82
2021/06/16 12:15:54;;;;;;;7.97;4.32;;;23.30;93.50;;;;;;5072647;28;20035;-82
2021/06/16 12:18:20;;;;;;;6.50;4.55;;;23.30;93.20;;;;;;5072648;28;20017;-80
2021/06/16 12:20:52;;;;;;;8.70;5.95;;;23.30;93.10;;;;;;5074110;28;20033;-82
2021/06/16 12:23:21;;;;;;;9.65;5.82;;;23.30;93.10;;;;;;5072382;28;20024;-83
2021/06/16 12:25:46;;;;;;;5.80;4.70;;;23.30;93.30;;;;;;5074013;28;20035;-82
2021/06/16 12:28:14;;;;;;;7.80;5.65;;;23.30;93.50;;;;;;5072744;28;20025;-81
2021/06/16 12:30:40;;;;;;;9.70;7.18;;;23.40;93.60;;;;;;5072687;28;20485;-82
2021/06/16 12:33:24;;;;;;;15.70;9.90;;;23.50;94.20;;;;;;5072360;28;20463;-75
2021/06/16 12:36:08;;;;;;;11.52;7.57;;;23.70;94.50;;;;;;5072017;28;20165;-74
2021/06/16 12:39:03;;;;;;;7.95;6.78;;;23.90;94.80;;;;;;5071944;28;20031;-75
2021/06/16 12:41:35;;;;;;;9.00;6.15;;;24.30;95.10;;;;;;5066569;28;20399;-75
2021/06/16 12:44:18;;;;;;;8.32;4.72;;;24.40;93.80;;;;;;5071991;28;20037;-75
2021/06/16 12:46:55;;;;;;;5.95;4.75;;;24.70;92.90;;;;;;5072078;28;20151;-74
2021/06/16 12:49:23;;;;;;;7.03;4.10;;;24.90;91.90;;;;;;5071690;28;20199;-74
2021/06/16 12:51:50;;;;;;;12.40;6.30;;;25.00;91.10;;;;;;5072014;28;20028;-78
2021/06/16 12:54:29;;;;;;;10.48;8.70;;;25.00;90.40;;;;;;5071488;28;20041;-75